RYR26PZ LEPA-LOWW
Flight info
| Callsign | RYR26PZ |
|---|---|
| Flight time | 2h 8m |
| Altitude | 36000 |
| Route | ISTER DCT NIVDA DCT OMEDA/N0446F380 DCT RAPUR DCT TORTU DCT ERTEV/N0447F370 DCT ARALD DCT ABTAN ABTAN2W |
| Aircraft | A320/M-SDE3FGHIRWY/LB1 |
Departure
| Time | 2026-04-26 11:34 |
|---|---|
| Airport | Palma de Mallorca Airport (LEPA) |
Arrival
| Time | 2026-04-26 13:42 |
|---|---|
| Airport | Vienna International Airport (LOWW) |
| Time | Latitude | Longitude | Altitude | Speed | Heading |
|---|---|---|---|---|---|
| 2026-04-26 11:12 | 39.54852 | 2.73431 | 29 ft | 0 kts | 332° |
| 2026-04-26 11:23 | 39.54843 | 2.73437 | 30 ft | 2 kts | 332° |
| 2026-04-26 11:23 | 39.54828 | 2.73447 | 30 ft | 2 kts | 332° |
| 2026-04-26 11:24 | 39.54814 | 2.73457 | 30 ft | 2 kts | 335° |
| 2026-04-26 11:24 | 39.54798 | 2.73460 | 30 ft | 2 kts | 9° |
| 2026-04-26 11:24 | 39.54782 | 2.73455 | 30 ft | 2 kts | 17° |
| 2026-04-26 11:24 | 39.54766 | 2.73449 | 30 ft | 2 kts | 10° |
| 2026-04-26 11:25 | 39.54750 | 2.73452 | 30 ft | 2 kts | 334° |
| 2026-04-26 11:25 | 39.54736 | 2.73463 | 30 ft | 2 kts | 326° |
| 2026-04-26 11:25 | 39.54722 | 2.73475 | 30 ft | 2 kts | 323° |
| 2026-04-26 11:25 | 39.54710 | 2.73487 | 30 ft | 2 kts | 325° |
| 2026-04-26 11:26 | 39.54706 | 2.73491 | 30 ft | 0 kts | 327° |
| 2026-04-26 11:27 | 39.54711 | 2.73486 | 30 ft | 4 kts | 327° |
| 2026-04-26 11:27 | 39.54756 | 2.73470 | 30 ft | 10 kts | 16° |
| 2026-04-26 11:27 | 39.54747 | 2.73551 | 30 ft | 14 kts | 148° |
| 2026-04-26 11:28 | 39.54668 | 2.73612 | 30 ft | 12 kts | 146° |
| 2026-04-26 11:28 | 39.54685 | 2.73724 | 30 ft | 14 kts | 58° |
| 2026-04-26 11:28 | 39.54749 | 2.73856 | 30 ft | 16 kts | 60° |
| 2026-04-26 11:28 | 39.54812 | 2.73988 | 30 ft | 14 kts | 46° |
| 2026-04-26 11:29 | 39.54903 | 2.73960 | 30 ft | 16 kts | 331° |
| 2026-04-26 11:29 | 39.54963 | 2.74009 | 30 ft | 12 kts | 15° |
| 2026-04-26 11:29 | 39.55037 | 2.73963 | 30 ft | 14 kts | 329° |
| 2026-04-26 11:29 | 39.55141 | 2.73881 | 30 ft | 21 kts | 328° |
| 2026-04-26 11:30 | 39.55285 | 2.73768 | 30 ft | 27 kts | 329° |
| 2026-04-26 11:30 | 39.55389 | 2.73685 | 30 ft | 27 kts | 329° |
| 2026-04-26 11:30 | 39.55596 | 2.73523 | 30 ft | 17 kts | 328° |
| 2026-04-26 11:30 | 39.55676 | 2.73542 | 30 ft | 15 kts | 59° |
| 2026-04-26 11:31 | 39.55739 | 2.73676 | 30 ft | 20 kts | 58° |
| 2026-04-26 11:31 | 39.55822 | 2.73848 | 30 ft | 25 kts | 58° |
| 2026-04-26 11:31 | 39.55915 | 2.74050 | 30 ft | 23 kts | 59° |
| 2026-04-26 11:31 | 39.55986 | 2.74196 | 30 ft | 21 kts | 58° |
| 2026-04-26 11:32 | 39.56057 | 2.74265 | 30 ft | 12 kts | 32° |
| 2026-04-26 11:32 | 39.56124 | 2.74326 | 30 ft | 14 kts | 35° |
| 2026-04-26 11:32 | 39.56166 | 2.74364 | 30 ft | 8 kts | 34° |
| 2026-04-26 11:32 | 39.56231 | 2.74347 | 30 ft | 14 kts | 308° |
| 2026-04-26 11:33 | 39.56224 | 2.74249 | 30 ft | 11 kts | 240° |
| 2026-04-26 11:33 | 39.56161 | 2.74117 | 30 ft | 34 kts | 236° |
| 2026-04-26 11:33 | 39.55897 | 2.73561 | 30 ft | 108 kts | 238° |
| 2026-04-26 11:33 | 39.55402 | 2.72510 | 57 ft | 159 kts | 239° |
| 2026-04-26 11:34 | 39.54828 | 2.71257 | 679 ft | 166 kts | 239° |
| 2026-04-26 11:34 | 39.54212 | 2.69927 | 1370 ft | 178 kts | 237° |
| 2026-04-26 11:34 | 39.53552 | 2.68542 | 2052 ft | 186 kts | 237° |
| 2026-04-26 11:34 | 39.52850 | 2.67072 | 2522 ft | 200 kts | 237° |
| 2026-04-26 11:35 | 39.52086 | 2.65475 | 2946 ft | 217 kts | 237° |
| 2026-04-26 11:35 | 39.51266 | 2.63761 | 3501 ft | 229 kts | 236° |
| 2026-04-26 11:35 | 39.50424 | 2.62000 | 4284 ft | 231 kts | 236° |
| 2026-04-26 11:35 | 39.49787 | 2.60844 | 4742 ft | 237 kts | 225° |
| 2026-04-26 11:36 | 39.47941 | 2.59217 | 5455 ft | 253 kts | 200° |
| 2026-04-26 11:36 | 39.46267 | 2.58294 | 6002 ft | 270 kts | 201° |
| 2026-04-26 11:36 | 39.44505 | 2.57312 | 6704 ft | 280 kts | 201° |
| 2026-04-26 11:36 | 39.42631 | 2.56715 | 7542 ft | 278 kts | 176° |
| 2026-04-26 11:37 | 39.40812 | 2.57409 | 8384 ft | 275 kts | 144° |
| 2026-04-26 11:37 | 39.39452 | 2.59182 | 9172 ft | 279 kts | 128° |
| 2026-04-26 11:37 | 39.38074 | 2.60936 | 9936 ft | 285 kts | 144° |
| 2026-04-26 11:37 | 39.36439 | 2.62465 | 10682 ft | 290 kts | 137° |
| 2026-04-26 11:38 | 39.34988 | 2.64321 | 11125 ft | 305 kts | 134° |
| 2026-04-26 11:38 | 39.33417 | 2.66332 | 11527 ft | 323 kts | 135° |
| 2026-04-26 11:38 | 39.31767 | 2.68395 | 11898 ft | 340 kts | 135° |
| 2026-04-26 11:38 | 39.30009 | 2.70563 | 12247 ft | 356 kts | 135° |
| 2026-04-26 11:39 | 39.28232 | 2.72845 | 12802 ft | 363 kts | 128° |
| 2026-04-26 11:39 | 39.27062 | 2.75697 | 13527 ft | 364 kts | 104° |
| 2026-04-26 11:39 | 39.26804 | 2.78950 | 14187 ft | 367 kts | 91° |
| 2026-04-26 11:39 | 39.26787 | 2.82269 | 14774 ft | 371 kts | 90° |
| 2026-04-26 11:40 | 39.26795 | 2.85621 | 15395 ft | 375 kts | 88° |
| 2026-04-26 11:40 | 39.27128 | 2.88966 | 16024 ft | 378 kts | 77° |
| 2026-04-26 11:40 | 39.27966 | 2.92194 | 16648 ft | 382 kts | 66° |
| 2026-04-26 11:40 | 39.29242 | 2.95219 | 17243 ft | 386 kts | 61° |
| 2026-04-26 11:41 | 39.30597 | 2.98229 | 17848 ft | 390 kts | 61° |
| 2026-04-26 11:42 | 39.40300 | 3.20156 | 21415 ft | 414 kts | 61° |
| 2026-04-26 11:43 | 39.41737 | 3.23398 | 21878 ft | 417 kts | 61° |
| 2026-04-26 11:43 | 39.43183 | 3.26660 | 22334 ft | 420 kts | 60° |
| 2026-04-26 11:43 | 39.44667 | 3.29941 | 22776 ft | 423 kts | 60° |
| 2026-04-26 11:43 | 39.46177 | 3.33216 | 23191 ft | 426 kts | 59° |
| 2026-04-26 11:44 | 39.47710 | 3.36517 | 23611 ft | 429 kts | 59° |
| 2026-04-26 11:44 | 39.49269 | 3.39880 | 23977 ft | 432 kts | 59° |
| 2026-04-26 11:44 | 39.50813 | 3.43224 | 24312 ft | 434 kts | 59° |
| 2026-04-26 11:44 | 39.52364 | 3.46591 | 24652 ft | 436 kts | 59° |
| 2026-04-26 11:45 | 39.53915 | 3.49969 | 24979 ft | 438 kts | 60° |
| 2026-04-26 11:45 | 39.55476 | 3.53376 | 25315 ft | 440 kts | 60° |
| 2026-04-26 11:45 | 39.57040 | 3.56797 | 25639 ft | 442 kts | 59° |
| 2026-04-26 11:45 | 39.58609 | 3.60234 | 25957 ft | 444 kts | 60° |
| 2026-04-26 11:46 | 39.60180 | 3.63683 | 26253 ft | 446 kts | 60° |
| 2026-04-26 11:46 | 39.61761 | 3.67149 | 26570 ft | 448 kts | 60° |
| 2026-04-26 11:46 | 39.63351 | 3.70632 | 26873 ft | 449 kts | 60° |
| 2026-04-26 11:46 | 39.64944 | 3.74129 | 27160 ft | 451 kts | 60° |
| 2026-04-26 11:47 | 39.66542 | 3.77648 | 27448 ft | 453 kts | 60° |
| 2026-04-26 11:47 | 39.68137 | 3.81171 | 27718 ft | 454 kts | 60° |
| 2026-04-26 11:47 | 39.69742 | 3.84725 | 27975 ft | 456 kts | 60° |
| 2026-04-26 11:47 | 39.71349 | 3.88276 | 28223 ft | 458 kts | 60° |
| 2026-04-26 11:48 | 39.72966 | 3.91846 | 28474 ft | 459 kts | 60° |
| 2026-04-26 11:48 | 39.74586 | 3.95426 | 28701 ft | 460 kts | 60° |
| 2026-04-26 11:48 | 39.76212 | 3.99020 | 28924 ft | 462 kts | 60° |
| 2026-04-26 11:48 | 39.77836 | 4.02621 | 29193 ft | 461 kts | 60° |
| 2026-04-26 11:49 | 39.79452 | 4.06216 | 29510 ft | 460 kts | 60° |
| 2026-04-26 11:49 | 39.80519 | 4.08590 | 29724 ft | 459 kts | 60° |
| 2026-04-26 11:49 | 39.82676 | 4.13390 | 30162 ft | 458 kts | 60° |
| 2026-04-26 11:49 | 39.83740 | 4.15762 | 30345 ft | 457 kts | 60° |
| 2026-04-26 11:50 | 39.85339 | 4.19337 | 30618 ft | 456 kts | 60° |
| 2026-04-26 11:50 | 39.86931 | 4.22896 | 30893 ft | 455 kts | 60° |
| 2026-04-26 11:50 | 39.88527 | 4.26461 | 31158 ft | 455 kts | 60° |
| 2026-04-26 11:50 | 39.90121 | 4.30017 | 31418 ft | 454 kts | 60° |
| 2026-04-26 11:51 | 39.91713 | 4.33565 | 31667 ft | 454 kts | 60° |
| 2026-04-26 11:51 | 39.93310 | 4.37119 | 31917 ft | 454 kts | 60° |
| 2026-04-26 11:51 | 39.94924 | 4.40716 | 32176 ft | 454 kts | 60° |
| 2026-04-26 11:51 | 39.96512 | 4.44269 | 32424 ft | 453 kts | 60° |
| 2026-04-26 11:52 | 39.98073 | 4.47775 | 32672 ft | 453 kts | 60° |
| 2026-04-26 11:52 | 39.99672 | 4.51372 | 32933 ft | 453 kts | 60° |
| 2026-04-26 11:52 | 40.01251 | 4.54919 | 33179 ft | 452 kts | 60° |
| 2026-04-26 11:52 | 40.02831 | 4.58470 | 33426 ft | 452 kts | 60° |
| 2026-04-26 11:53 | 40.04404 | 4.62014 | 33681 ft | 452 kts | 60° |
| 2026-04-26 11:53 | 40.05196 | 4.63798 | 33797 ft | 451 kts | 60° |
| 2026-04-26 11:53 | 40.06886 | 4.67262 | 34048 ft | 451 kts | 53° |
| 2026-04-26 11:54 | 40.10884 | 4.73553 | 34466 ft | 451 kts | 50° |
| 2026-04-26 11:54 | 40.12897 | 4.76706 | 34669 ft | 451 kts | 50° |
| 2026-04-26 11:54 | 40.14894 | 4.79854 | 34867 ft | 451 kts | 50° |
| 2026-04-26 11:54 | 40.16899 | 4.83020 | 35058 ft | 451 kts | 50° |
| 2026-04-26 11:55 | 40.18901 | 4.86181 | 35242 ft | 452 kts | 50° |
| 2026-04-26 11:55 | 40.20904 | 4.89347 | 35431 ft | 452 kts | 50° |
| 2026-04-26 11:55 | 40.22906 | 4.92508 | 35590 ft | 452 kts | 50° |
| 2026-04-26 11:55 | 40.24915 | 4.95681 | 35758 ft | 452 kts | 50° |
| 2026-04-26 11:56 | 40.26920 | 4.98849 | 35917 ft | 452 kts | 50° |
| 2026-04-26 11:56 | 40.28930 | 5.02021 | 36095 ft | 452 kts | 50° |
| 2026-04-26 11:56 | 40.30938 | 5.05197 | 36174 ft | 454 kts | 50° |
| 2026-04-26 11:57 | 40.34978 | 5.11608 | 36184 ft | 456 kts | 50° |
| 2026-04-26 11:57 | 40.39014 | 5.18016 | 36180 ft | 456 kts | 50° |
| 2026-04-26 11:58 | 40.43045 | 5.24435 | 36184 ft | 456 kts | 50° |
| 2026-04-26 11:58 | 40.47071 | 5.30862 | 36183 ft | 456 kts | 50° |
| 2026-04-26 11:59 | 40.51095 | 5.37307 | 36181 ft | 456 kts | 50° |
| 2026-04-26 11:59 | 40.55126 | 5.43769 | 36185 ft | 457 kts | 50° |
| 2026-04-26 12:00 | 40.59154 | 5.50227 | 36184 ft | 457 kts | 50° |
| 2026-04-26 12:00 | 40.63202 | 5.56738 | 36187 ft | 457 kts | 50° |
| 2026-04-26 12:01 | 40.67223 | 5.63229 | 36192 ft | 457 kts | 50° |
| 2026-04-26 12:01 | 40.71235 | 5.69724 | 36186 ft | 457 kts | 50° |
| 2026-04-26 12:02 | 40.75254 | 5.76220 | 36185 ft | 457 kts | 50° |
| 2026-04-26 12:02 | 40.79263 | 5.82717 | 36182 ft | 457 kts | 50° |
| 2026-04-26 12:03 | 40.83276 | 5.89249 | 36184 ft | 457 kts | 50° |
| 2026-04-26 12:03 | 40.87275 | 5.95780 | 36185 ft | 457 kts | 50° |
| 2026-04-26 12:04 | 40.91282 | 6.02324 | 36183 ft | 457 kts | 50° |
| 2026-04-26 12:04 | 40.95280 | 6.08865 | 36183 ft | 457 kts | 50° |
| 2026-04-26 12:05 | 40.99279 | 6.15427 | 36184 ft | 457 kts | 50° |
| 2026-04-26 12:05 | 41.03272 | 6.21991 | 36182 ft | 457 kts | 50° |
| 2026-04-26 12:06 | 41.07258 | 6.28562 | 36183 ft | 458 kts | 50° |
| 2026-04-26 12:06 | 41.11245 | 6.35143 | 36181 ft | 458 kts | 50° |
| 2026-04-26 12:07 | 41.15228 | 6.41730 | 36181 ft | 458 kts | 50° |
| 2026-04-26 12:07 | 41.19212 | 6.48337 | 36181 ft | 458 kts | 50° |
| 2026-04-26 12:08 | 41.23218 | 6.54991 | 36179 ft | 458 kts | 50° |
| 2026-04-26 12:08 | 41.27218 | 6.61579 | 36181 ft | 458 kts | 50° |
| 2026-04-26 12:09 | 41.31296 | 6.68095 | 36182 ft | 458 kts | 49° |
| 2026-04-26 12:09 | 41.35377 | 6.74605 | 36182 ft | 458 kts | 49° |
| 2026-04-26 12:10 | 41.39440 | 6.81152 | 36186 ft | 459 kts | 50° |
| 2026-04-26 12:10 | 41.43490 | 6.87718 | 36188 ft | 459 kts | 50° |
| 2026-04-26 12:11 | 41.47539 | 6.94298 | 36191 ft | 459 kts | 50° |
| 2026-04-26 12:11 | 41.51582 | 7.00878 | 36193 ft | 459 kts | 50° |
| 2026-04-26 12:12 | 41.55626 | 7.07459 | 36197 ft | 459 kts | 50° |
| 2026-04-26 12:12 | 41.59667 | 7.14048 | 36196 ft | 459 kts | 50° |
| 2026-04-26 12:13 | 41.63704 | 7.20652 | 36197 ft | 459 kts | 50° |
| 2026-04-26 12:13 | 41.67735 | 7.27274 | 36195 ft | 459 kts | 50° |
| 2026-04-26 12:14 | 41.71764 | 7.33904 | 36194 ft | 459 kts | 50° |
| 2026-04-26 12:14 | 41.75792 | 7.40526 | 36199 ft | 459 kts | 50° |
| 2026-04-26 12:15 | 41.79819 | 7.47160 | 36192 ft | 459 kts | 50° |
| 2026-04-26 12:15 | 41.83834 | 7.53802 | 36196 ft | 459 kts | 50° |
| 2026-04-26 12:16 | 41.87844 | 7.60453 | 36199 ft | 459 kts | 50° |
| 2026-04-26 12:16 | 41.91853 | 7.67123 | 36193 ft | 459 kts | 50° |
| 2026-04-26 12:17 | 41.95856 | 7.73806 | 36195 ft | 459 kts | 50° |
| 2026-04-26 12:17 | 41.99886 | 7.80524 | 36190 ft | 459 kts | 50° |
| 2026-04-26 12:18 | 42.03891 | 7.87209 | 36190 ft | 459 kts | 50° |
| 2026-04-26 12:18 | 42.07894 | 7.93912 | 36192 ft | 459 kts | 50° |
| 2026-04-26 12:19 | 42.11882 | 8.00633 | 36193 ft | 459 kts | 50° |
| 2026-04-26 12:19 | 42.15873 | 8.07362 | 36197 ft | 460 kts | 50° |
| 2026-04-26 12:20 | 42.19863 | 8.14097 | 36192 ft | 460 kts | 50° |
| 2026-04-26 12:20 | 42.23857 | 8.20838 | 36188 ft | 460 kts | 50° |
| 2026-04-26 12:21 | 42.27174 | 8.26456 | 36188 ft | 460 kts | 50° |
| 2026-04-26 12:21 | 42.32055 | 8.34069 | 36182 ft | 458 kts | 39° |
| 2026-04-26 12:22 | 42.37369 | 8.38668 | 36172 ft | 453 kts | 21° |
| 2026-04-26 12:22 | 42.42222 | 8.41320 | 36174 ft | 453 kts | 20° |
| 2026-04-26 12:23 | 42.48059 | 8.44563 | 36179 ft | 453 kts | 20° |
| 2026-04-26 12:23 | 42.53890 | 8.47828 | 36181 ft | 453 kts | 20° |
| 2026-04-26 12:24 | 42.59712 | 8.51091 | 36187 ft | 453 kts | 20° |
| 2026-04-26 12:24 | 42.65545 | 8.54342 | 36185 ft | 453 kts | 20° |
| 2026-04-26 12:25 | 42.74331 | 8.59249 | 36189 ft | 453 kts | 20° |
| 2026-04-26 12:25 | 42.80150 | 8.62512 | 36188 ft | 453 kts | 20° |
| 2026-04-26 12:26 | 42.85945 | 8.65777 | 36194 ft | 453 kts | 20° |
| 2026-04-26 12:26 | 42.91766 | 8.69069 | 36203 ft | 453 kts | 20° |
| 2026-04-26 12:27 | 42.97631 | 8.72378 | 36203 ft | 453 kts | 20° |
| 2026-04-26 12:27 | 43.03450 | 8.75657 | 36206 ft | 453 kts | 20° |
| 2026-04-26 12:28 | 43.09273 | 8.78962 | 36207 ft | 453 kts | 20° |
| 2026-04-26 12:28 | 43.15095 | 8.82272 | 36208 ft | 453 kts | 20° |
| 2026-04-26 12:29 | 43.20907 | 8.85575 | 36207 ft | 453 kts | 20° |
| 2026-04-26 12:30 | 43.29636 | 8.90556 | 36209 ft | 453 kts | 20° |
| 2026-04-26 12:30 | 43.35454 | 8.93881 | 36208 ft | 452 kts | 19° |
| 2026-04-26 12:31 | 43.41530 | 8.95791 | 36203 ft | 447 kts | 1° |
| 2026-04-26 12:31 | 43.44630 | 8.95851 | 36195 ft | 446 kts | 357° |
| 2026-04-26 12:31 | 43.50834 | 8.95825 | 36200 ft | 446 kts | 358° |
| 2026-04-26 12:32 | 43.56983 | 8.96517 | 36192 ft | 450 kts | 19° |
| 2026-04-26 12:32 | 43.61734 | 9.02023 | 36153 ft | 461 kts | 58° |
| 2026-04-26 12:33 | 43.63429 | 9.05798 | 36160 ft | 461 kts | 49° |
| 2026-04-26 12:33 | 43.65752 | 9.08759 | 36161 ft | 454 kts | 28° |
| 2026-04-26 12:33 | 43.68561 | 9.10751 | 36149 ft | 453 kts | 23° |
| 2026-04-26 12:34 | 43.74241 | 9.14533 | 36184 ft | 454 kts | 23° |
| 2026-04-26 12:34 | 43.79939 | 9.18331 | 36195 ft | 454 kts | 24° |
| 2026-04-26 12:34 | 43.82646 | 9.20604 | 36189 ft | 457 kts | 37° |
| 2026-04-26 12:35 | 43.84998 | 9.23589 | 36186 ft | 459 kts | 41° |
| 2026-04-26 12:35 | 43.89621 | 9.29713 | 36193 ft | 459 kts | 42° |
| 2026-04-26 12:36 | 43.94232 | 9.35836 | 36196 ft | 459 kts | 42° |
| 2026-04-26 12:36 | 43.98847 | 9.41970 | 36199 ft | 459 kts | 42° |
| 2026-04-26 12:37 | 44.03467 | 9.48111 | 36197 ft | 460 kts | 42° |
| 2026-04-26 12:37 | 44.08120 | 9.54314 | 36192 ft | 460 kts | 42° |
| 2026-04-26 12:38 | 44.12736 | 9.60477 | 36189 ft | 460 kts | 42° |
| 2026-04-26 12:38 | 44.17321 | 9.66615 | 36185 ft | 460 kts | 42° |
| 2026-04-26 12:39 | 44.21956 | 9.72841 | 36184 ft | 460 kts | 42° |
| 2026-04-26 12:39 | 44.26559 | 9.79049 | 36181 ft | 460 kts | 42° |
| 2026-04-26 12:40 | 44.31163 | 9.85257 | 36175 ft | 460 kts | 42° |
| 2026-04-26 12:40 | 44.35770 | 9.91476 | 36175 ft | 460 kts | 42° |
| 2026-04-26 12:41 | 44.40362 | 9.97706 | 36172 ft | 460 kts | 42° |
| 2026-04-26 12:41 | 44.44951 | 10.03944 | 36163 ft | 460 kts | 42° |
| 2026-04-26 12:42 | 44.49537 | 10.10190 | 36162 ft | 460 kts | 42° |
| 2026-04-26 12:42 | 44.54115 | 10.16444 | 36152 ft | 460 kts | 42° |
| 2026-04-26 12:43 | 44.58697 | 10.22707 | 36146 ft | 460 kts | 43° |
| 2026-04-26 12:43 | 44.63279 | 10.28978 | 36141 ft | 460 kts | 42° |
| 2026-04-26 12:44 | 44.67855 | 10.35262 | 36134 ft | 460 kts | 43° |
| 2026-04-26 12:44 | 44.72423 | 10.41559 | 36131 ft | 460 kts | 43° |
| 2026-04-26 12:45 | 44.76984 | 10.47862 | 36132 ft | 460 kts | 43° |
| 2026-04-26 12:45 | 44.81546 | 10.54170 | 36132 ft | 460 kts | 43° |
| 2026-04-26 12:46 | 44.86137 | 10.60532 | 36126 ft | 459 kts | 43° |
| 2026-04-26 12:46 | 44.88411 | 10.63689 | 35520 ft | 458 kts | 43° |
| 2026-04-26 12:46 | 44.90680 | 10.66843 | 34790 ft | 457 kts | 43° |
| 2026-04-26 12:46 | 44.92937 | 10.69988 | 34001 ft | 457 kts | 43° |
| 2026-04-26 12:47 | 44.95198 | 10.73142 | 33251 ft | 454 kts | 43° |
| 2026-04-26 12:47 | 44.97398 | 10.76223 | 33040 ft | 436 kts | 43° |
| 2026-04-26 12:47 | 44.99528 | 10.79210 | 32004 ft | 430 kts | 43° |
| 2026-04-26 12:47 | 45.01666 | 10.82199 | 30684 ft | 434 kts | 43° |
| 2026-04-26 12:48 | 45.03815 | 10.85203 | 29270 ft | 436 kts | 43° |
| 2026-04-26 12:48 | 45.05962 | 10.88211 | 28053 ft | 432 kts | 43° |
| 2026-04-26 12:48 | 45.08077 | 10.91180 | 27006 ft | 425 kts | 43° |
| 2026-04-26 12:48 | 45.10157 | 10.94108 | 26019 ft | 418 kts | 43° |
| 2026-04-26 12:49 | 45.12195 | 10.96981 | 25068 ft | 410 kts | 43° |
| 2026-04-26 12:49 | 45.14203 | 10.99812 | 24149 ft | 404 kts | 43° |
| 2026-04-26 12:49 | 45.16180 | 11.02600 | 23181 ft | 398 kts | 43° |
| 2026-04-26 12:49 | 45.18124 | 11.05340 | 22197 ft | 392 kts | 43° |
| 2026-04-26 12:50 | 45.20043 | 11.08047 | 21260 ft | 386 kts | 44° |
| 2026-04-26 12:50 | 45.21931 | 11.10714 | 20352 ft | 380 kts | 44° |
| 2026-04-26 12:50 | 45.23793 | 11.13348 | 19468 ft | 375 kts | 44° |
| 2026-04-26 12:50 | 45.25625 | 11.15945 | 18611 ft | 370 kts | 44° |
| 2026-04-26 12:51 | 45.27434 | 11.18514 | 17673 ft | 366 kts | 44° |
| 2026-04-26 12:51 | 45.29225 | 11.21057 | 16752 ft | 361 kts | 44° |
| 2026-04-26 12:51 | 45.30987 | 11.23564 | 15866 ft | 357 kts | 44° |
| 2026-04-26 12:51 | 45.32731 | 11.26046 | 15002 ft | 352 kts | 44° |
| 2026-04-26 12:52 | 45.34451 | 11.28494 | 14161 ft | 349 kts | 45° |
| 2026-04-26 12:52 | 45.36158 | 11.30926 | 13267 ft | 345 kts | 45° |
| 2026-04-26 12:52 | 45.37839 | 11.33323 | 12388 ft | 340 kts | 45° |
| 2026-04-26 12:52 | 45.39493 | 11.35680 | 11525 ft | 334 kts | 44° |
| 2026-04-26 12:53 | 45.41122 | 11.38004 | 10698 ft | 329 kts | 44° |
| 2026-04-26 12:53 | 45.42745 | 11.40327 | 9863 ft | 324 kts | 44° |
| 2026-04-26 12:53 | 45.44301 | 11.42556 | 8985 ft | 319 kts | 45° |
| 2026-04-26 12:53 | 45.45873 | 11.44811 | 8080 ft | 315 kts | 45° |
| 2026-04-26 12:54 | 45.47406 | 11.47013 | 7234 ft | 312 kts | 45° |
| 2026-04-26 12:54 | 45.48412 | 11.48459 | 6689 ft | 309 kts | 46° |
| 2026-04-26 12:54 | 45.49915 | 11.50619 | 5847 ft | 305 kts | 46° |
| 2026-04-26 12:54 | 45.51410 | 11.52771 | 5640 ft | 307 kts | 46° |
| 2026-04-26 12:55 | 45.52912 | 11.54929 | 5515 ft | 306 kts | 46° |
| 2026-04-26 12:55 | 45.54413 | 11.57084 | 5379 ft | 306 kts | 46° |
| 2026-04-26 12:55 | 45.55908 | 11.59232 | 5264 ft | 305 kts | 46° |
| 2026-04-26 12:55 | 45.57401 | 11.61382 | 5131 ft | 304 kts | 46° |
| 2026-04-26 12:56 | 45.58892 | 11.63534 | 5011 ft | 304 kts | 46° |
| 2026-04-26 12:56 | 45.60376 | 11.65679 | 4875 ft | 304 kts | 46° |
| 2026-04-26 12:56 | 45.61862 | 11.67823 | 4759 ft | 303 kts | 47° |
| 2026-04-26 12:56 | 45.63339 | 11.69956 | 4626 ft | 302 kts | 46° |
| 2026-04-26 12:57 | 45.64780 | 11.72039 | 4491 ft | 287 kts | 47° |
| 2026-04-26 12:57 | 45.66131 | 11.73989 | 4604 ft | 262 kts | 46° |
| 2026-04-26 12:57 | 45.67390 | 11.75808 | 5264 ft | 262 kts | 46° |
| 2026-04-26 12:58 | 45.70015 | 11.79624 | 7119 ft | 274 kts | 45° |
| 2026-04-26 12:58 | 45.71361 | 11.81585 | 8070 ft | 278 kts | 45° |
| 2026-04-26 12:58 | 45.72741 | 11.83595 | 9042 ft | 281 kts | 44° |
| 2026-04-26 12:58 | 45.74099 | 11.85573 | 9990 ft | 284 kts | 44° |
| 2026-04-26 12:59 | 45.75533 | 11.87657 | 10632 ft | 298 kts | 44° |
| 2026-04-26 12:59 | 45.77032 | 11.89832 | 11121 ft | 315 kts | 44° |
| 2026-04-26 12:59 | 45.78616 | 11.92134 | 11580 ft | 333 kts | 44° |
| 2026-04-26 12:59 | 45.80283 | 11.94557 | 12008 ft | 350 kts | 45° |
| 2026-04-26 13:00 | 45.82036 | 11.97110 | 12377 ft | 367 kts | 45° |
| 2026-04-26 13:00 | 45.83870 | 11.99785 | 12754 ft | 382 kts | 45° |
| 2026-04-26 13:00 | 45.85740 | 12.02527 | 13381 ft | 388 kts | 45° |
| 2026-04-26 13:00 | 45.87640 | 12.05317 | 14079 ft | 392 kts | 45° |
| 2026-04-26 13:01 | 45.89547 | 12.08121 | 14821 ft | 392 kts | 45° |
| 2026-04-26 13:01 | 45.91440 | 12.10922 | 15683 ft | 390 kts | 46° |
| 2026-04-26 13:01 | 45.92905 | 12.14167 | 16536 ft | 391 kts | 68° |
| 2026-04-26 13:01 | 45.93442 | 12.17995 | 16940 ft | 394 kts | 85° |
| 2026-04-26 13:02 | 45.93732 | 12.21909 | 17156 ft | 399 kts | 73° |
| 2026-04-26 13:02 | 45.94957 | 12.25514 | 17450 ft | 408 kts | 50° |
| 2026-04-26 13:02 | 45.96927 | 12.28480 | 17920 ft | 414 kts | 45° |
| 2026-04-26 13:02 | 45.98827 | 12.31622 | 18485 ft | 419 kts | 50° |
| 2026-04-26 13:03 | 46.00583 | 12.34995 | 18978 ft | 423 kts | 53° |
| 2026-04-26 13:03 | 46.02270 | 12.38463 | 19472 ft | 426 kts | 54° |
| 2026-04-26 13:03 | 46.03972 | 12.41973 | 19966 ft | 429 kts | 53° |
| 2026-04-26 13:03 | 46.05721 | 12.45472 | 20455 ft | 432 kts | 52° |
| 2026-04-26 13:04 | 46.07520 | 12.48940 | 20908 ft | 434 kts | 51° |
| 2026-04-26 13:04 | 46.09368 | 12.52405 | 21335 ft | 437 kts | 50° |
| 2026-04-26 13:04 | 46.11245 | 12.55865 | 21759 ft | 440 kts | 50° |
| 2026-04-26 13:04 | 46.13138 | 12.59340 | 22193 ft | 442 kts | 50° |
| 2026-04-26 13:05 | 46.15036 | 12.62846 | 22606 ft | 444 kts | 50° |
| 2026-04-26 13:05 | 46.16930 | 12.66376 | 22985 ft | 447 kts | 51° |
| 2026-04-26 13:05 | 46.18829 | 12.69943 | 23348 ft | 449 kts | 51° |
| 2026-04-26 13:05 | 46.20735 | 12.73537 | 23698 ft | 452 kts | 51° |
| 2026-04-26 13:06 | 46.22654 | 12.77159 | 24006 ft | 455 kts | 51° |
| 2026-04-26 13:06 | 46.24582 | 12.80793 | 24309 ft | 457 kts | 51° |
| 2026-04-26 13:06 | 46.26518 | 12.84445 | 24610 ft | 459 kts | 50° |
| 2026-04-26 13:06 | 46.28465 | 12.88123 | 24905 ft | 462 kts | 51° |
| 2026-04-26 13:07 | 46.30419 | 12.91823 | 25177 ft | 464 kts | 51° |
| 2026-04-26 13:07 | 46.32401 | 12.95586 | 25434 ft | 466 kts | 51° |
| 2026-04-26 13:07 | 46.34364 | 12.99319 | 25680 ft | 468 kts | 51° |
| 2026-04-26 13:07 | 46.36340 | 13.03087 | 25932 ft | 470 kts | 51° |
| 2026-04-26 13:08 | 46.38317 | 13.06858 | 26183 ft | 471 kts | 51° |
| 2026-04-26 13:08 | 46.40300 | 13.10638 | 26423 ft | 473 kts | 51° |
| 2026-04-26 13:08 | 46.42299 | 13.14446 | 26642 ft | 474 kts | 51° |
| 2026-04-26 13:08 | 46.44297 | 13.18253 | 26868 ft | 475 kts | 51° |
| 2026-04-26 13:09 | 46.46294 | 13.22070 | 27174 ft | 474 kts | 51° |
| 2026-04-26 13:09 | 46.48280 | 13.25874 | 27492 ft | 473 kts | 51° |
| 2026-04-26 13:09 | 46.50267 | 13.29680 | 27797 ft | 472 kts | 51° |
| 2026-04-26 13:09 | 46.52246 | 13.33479 | 28078 ft | 472 kts | 51° |
| 2026-04-26 13:10 | 46.54225 | 13.37286 | 28387 ft | 472 kts | 51° |
| 2026-04-26 13:10 | 46.56200 | 13.41089 | 28701 ft | 471 kts | 51° |
| 2026-04-26 13:10 | 46.58166 | 13.44883 | 29008 ft | 471 kts | 51° |
| 2026-04-26 13:10 | 46.60134 | 13.48693 | 29334 ft | 470 kts | 51° |
| 2026-04-26 13:11 | 46.62091 | 13.52490 | 29663 ft | 469 kts | 51° |
| 2026-04-26 13:11 | 46.64051 | 13.56288 | 30010 ft | 468 kts | 51° |
| 2026-04-26 13:11 | 46.66005 | 13.60073 | 30330 ft | 468 kts | 51° |
| 2026-04-26 13:11 | 46.67955 | 13.63862 | 30608 ft | 467 kts | 51° |
| 2026-04-26 13:12 | 46.69900 | 13.67648 | 30869 ft | 467 kts | 51° |
| 2026-04-26 13:12 | 46.71846 | 13.71437 | 31142 ft | 467 kts | 51° |
| 2026-04-26 13:12 | 46.73794 | 13.75232 | 31411 ft | 467 kts | 51° |
| 2026-04-26 13:12 | 46.75738 | 13.79029 | 31676 ft | 467 kts | 51° |
| 2026-04-26 13:13 | 46.77676 | 13.82823 | 31948 ft | 467 kts | 51° |
| 2026-04-26 13:13 | 46.79617 | 13.86624 | 32231 ft | 467 kts | 51° |
| 2026-04-26 13:13 | 46.81553 | 13.90418 | 32516 ft | 466 kts | 51° |
| 2026-04-26 13:13 | 46.83489 | 13.94216 | 32802 ft | 466 kts | 51° |
| 2026-04-26 13:14 | 46.85421 | 13.98012 | 33083 ft | 465 kts | 51° |
| 2026-04-26 13:14 | 46.87346 | 14.01806 | 33329 ft | 465 kts | 52° |
| 2026-04-26 13:14 | 46.89274 | 14.05613 | 33600 ft | 465 kts | 51° |
| 2026-04-26 13:14 | 46.91200 | 14.09413 | 33871 ft | 465 kts | 51° |
| 2026-04-26 13:15 | 46.93151 | 14.13269 | 34144 ft | 465 kts | 52° |
| 2026-04-26 13:15 | 46.95071 | 14.17070 | 34390 ft | 465 kts | 52° |
| 2026-04-26 13:15 | 46.96991 | 14.20881 | 34637 ft | 465 kts | 52° |
| 2026-04-26 13:15 | 46.98258 | 14.23398 | 34796 ft | 465 kts | 52° |
| 2026-04-26 13:16 | 47.00824 | 14.28497 | 35126 ft | 464 kts | 52° |
| 2026-04-26 13:16 | 47.02737 | 14.32302 | 35373 ft | 464 kts | 52° |
| 2026-04-26 13:16 | 47.04649 | 14.36116 | 35588 ft | 464 kts | 52° |
| 2026-04-26 13:16 | 47.06559 | 14.39931 | 35794 ft | 464 kts | 52° |
| 2026-04-26 13:17 | 47.10277 | 14.47652 | 36121 ft | 465 kts | 59° |
| 2026-04-26 13:17 | 47.11671 | 14.51958 | 36138 ft | 467 kts | 69° |
| 2026-04-26 13:18 | 47.14159 | 14.65823 | 36137 ft | 469 kts | 75° |
| 2026-04-26 13:19 | 47.16557 | 14.79748 | 36138 ft | 469 kts | 75° |
| 2026-04-26 13:19 | 47.18142 | 14.89050 | 36140 ft | 469 kts | 75° |
| 2026-04-26 13:20 | 47.19719 | 14.98357 | 36139 ft | 469 kts | 75° |
| 2026-04-26 13:20 | 47.21288 | 15.07672 | 36137 ft | 469 kts | 75° |
| 2026-04-26 13:21 | 47.22844 | 15.16983 | 35913 ft | 467 kts | 75° |
| 2026-04-26 13:21 | 47.23354 | 15.20052 | 35033 ft | 466 kts | 75° |
| 2026-04-26 13:21 | 47.24393 | 15.26294 | 33280 ft | 465 kts | 76° |
| 2026-04-26 13:21 | 47.25146 | 15.30827 | 32614 ft | 449 kts | 75° |
| 2026-04-26 13:22 | 47.25879 | 15.35261 | 31628 ft | 445 kts | 75° |
| 2026-04-26 13:22 | 47.26609 | 15.39701 | 30644 ft | 447 kts | 75° |
| 2026-04-26 13:22 | 47.27340 | 15.44159 | 29434 ft | 448 kts | 75° |
| 2026-04-26 13:22 | 47.28073 | 15.48645 | 28329 ft | 451 kts | 75° |
| 2026-04-26 13:23 | 47.28804 | 15.53133 | 27128 ft | 452 kts | 75° |
| 2026-04-26 13:23 | 47.29545 | 15.57679 | 25926 ft | 460 kts | 74° |
| 2026-04-26 13:23 | 47.30292 | 15.62258 | 25099 ft | 458 kts | 74° |
| 2026-04-26 13:23 | 47.31030 | 15.66797 | 24290 ft | 454 kts | 73° |
| 2026-04-26 13:24 | 47.31761 | 15.71314 | 23436 ft | 452 kts | 73° |
| 2026-04-26 13:24 | 47.32493 | 15.75859 | 22609 ft | 448 kts | 73° |
| 2026-04-26 13:24 | 47.33209 | 15.80310 | 21870 ft | 443 kts | 73° |
| 2026-04-26 13:24 | 47.33903 | 15.84647 | 21151 ft | 439 kts | 73° |
| 2026-04-26 13:25 | 47.34602 | 15.89013 | 20432 ft | 435 kts | 73° |
| 2026-04-26 13:25 | 47.35301 | 15.93387 | 19740 ft | 431 kts | 73° |
| 2026-04-26 13:25 | 47.35980 | 15.97659 | 19070 ft | 427 kts | 73° |
| 2026-04-26 13:25 | 47.36759 | 16.01852 | 18431 ft | 420 kts | 66° |
| 2026-04-26 13:26 | 47.37929 | 16.05712 | 17739 ft | 414 kts | 57° |
| 2026-04-26 13:26 | 47.39474 | 16.09323 | 17097 ft | 409 kts | 52° |
| 2026-04-26 13:26 | 47.41041 | 16.12819 | 16455 ft | 407 kts | 52° |
| 2026-04-26 13:26 | 47.42591 | 16.16296 | 15815 ft | 405 kts | 52° |
| 2026-04-26 13:27 | 47.44131 | 16.19764 | 15178 ft | 403 kts | 53° |
| 2026-04-26 13:27 | 47.45145 | 16.22057 | 14758 ft | 401 kts | 52° |
| 2026-04-26 13:27 | 47.46672 | 16.25504 | 14133 ft | 400 kts | 52° |
| 2026-04-26 13:27 | 47.48166 | 16.28893 | 13831 ft | 381 kts | 52° |
| 2026-04-26 13:28 | 47.49546 | 16.32051 | 13569 ft | 354 kts | 52° |
| 2026-04-26 13:28 | 47.50859 | 16.35049 | 12879 ft | 342 kts | 52° |
| 2026-04-26 13:28 | 47.52149 | 16.37966 | 12051 ft | 337 kts | 51° |
| 2026-04-26 13:28 | 47.53431 | 16.40851 | 11292 ft | 335 kts | 51° |
| 2026-04-26 13:29 | 47.54708 | 16.43726 | 11012 ft | 334 kts | 51° |
| 2026-04-26 13:29 | 47.55982 | 16.46599 | 10929 ft | 334 kts | 52° |
| 2026-04-26 13:29 | 47.57255 | 16.49478 | 10789 ft | 334 kts | 52° |
| 2026-04-26 13:29 | 47.58493 | 16.52300 | 10663 ft | 314 kts | 52° |
| 2026-04-26 13:30 | 47.59624 | 16.54907 | 10547 ft | 289 kts | 51° |
| 2026-04-26 13:30 | 47.60670 | 16.57321 | 10413 ft | 268 kts | 51° |
| 2026-04-26 13:30 | 47.61658 | 16.59593 | 10226 ft | 260 kts | 50° |
| 2026-04-26 13:30 | 47.62646 | 16.61847 | 10112 ft | 260 kts | 50° |
| 2026-04-26 13:31 | 47.63629 | 16.64088 | 9648 ft | 257 kts | 50° |
| 2026-04-26 13:31 | 47.64603 | 16.66313 | 9237 ft | 257 kts | 50° |
| 2026-04-26 13:31 | 47.65575 | 16.68533 | 8837 ft | 258 kts | 50° |
| 2026-04-26 13:31 | 47.66571 | 16.70794 | 8336 ft | 262 kts | 50° |
| 2026-04-26 13:32 | 47.67728 | 16.72775 | 8173 ft | 237 kts | 31° |
| 2026-04-26 13:32 | 47.69041 | 16.73964 | 8050 ft | 209 kts | 14° |
| 2026-04-26 13:32 | 47.70356 | 16.74505 | 7771 ft | 192 kts | 359° |
| 2026-04-26 13:32 | 47.71679 | 16.74514 | 7363 ft | 185 kts | 345° |
| 2026-04-26 13:33 | 47.72909 | 16.74077 | 6921 ft | 181 kts | 338° |
| 2026-04-26 13:33 | 47.74048 | 16.73592 | 6525 ft | 180 kts | 338° |
| 2026-04-26 13:33 | 47.75256 | 16.73087 | 6154 ft | 180 kts | 339° |
| 2026-04-26 13:33 | 47.76460 | 16.72587 | 5793 ft | 179 kts | 340° |
| 2026-04-26 13:34 | 47.77661 | 16.72090 | 5503 ft | 179 kts | 341° |
| 2026-04-26 13:34 | 47.78867 | 16.71591 | 5236 ft | 179 kts | 341° |
| 2026-04-26 13:34 | 47.80066 | 16.71096 | 4974 ft | 178 kts | 342° |
| 2026-04-26 13:34 | 47.80862 | 16.70767 | 4786 ft | 179 kts | 343° |
| 2026-04-26 13:35 | 47.82471 | 16.70126 | 4423 ft | 179 kts | 345° |
| 2026-04-26 13:35 | 47.83707 | 16.69670 | 4314 ft | 186 kts | 344° |
| 2026-04-26 13:35 | 47.84957 | 16.69172 | 4249 ft | 186 kts | 343° |
| 2026-04-26 13:35 | 47.86202 | 16.68658 | 4172 ft | 184 kts | 343° |
| 2026-04-26 13:36 | 47.87433 | 16.68143 | 4089 ft | 184 kts | 344° |
| 2026-04-26 13:36 | 47.88667 | 16.67628 | 4017 ft | 185 kts | 343° |
| 2026-04-26 13:36 | 47.89909 | 16.67107 | 3929 ft | 184 kts | 343° |
| 2026-04-26 13:36 | 47.91137 | 16.66593 | 3861 ft | 183 kts | 343° |
| 2026-04-26 13:37 | 47.92364 | 16.66079 | 3768 ft | 184 kts | 343° |
| 2026-04-26 13:37 | 47.93596 | 16.65561 | 3663 ft | 180 kts | 345° |
| 2026-04-26 13:37 | 47.94764 | 16.65071 | 3497 ft | 169 kts | 345° |
| 2026-04-26 13:37 | 47.95869 | 16.64607 | 3287 ft | 162 kts | 344° |
| 2026-04-26 13:38 | 47.96922 | 16.64165 | 3076 ft | 149 kts | 344° |
| 2026-04-26 13:38 | 47.97848 | 16.63775 | 2902 ft | 130 kts | 345° |
| 2026-04-26 13:38 | 47.98706 | 16.63414 | 2731 ft | 129 kts | 345° |
| 2026-04-26 13:38 | 47.99557 | 16.63056 | 2540 ft | 128 kts | 346° |
| 2026-04-26 13:39 | 48.00403 | 16.62700 | 2366 ft | 126 kts | 346° |
| 2026-04-26 13:39 | 48.01253 | 16.62343 | 2192 ft | 126 kts | 345° |
| 2026-04-26 13:39 | 48.02102 | 16.61984 | 2019 ft | 127 kts | 345° |
| 2026-04-26 13:39 | 48.02942 | 16.61642 | 1808 ft | 124 kts | 345° |
| 2026-04-26 13:40 | 48.03780 | 16.61284 | 1671 ft | 126 kts | 343° |
| 2026-04-26 13:40 | 48.04619 | 16.60920 | 1513 ft | 125 kts | 345° |
| 2026-04-26 13:40 | 48.05459 | 16.60567 | 1346 ft | 125 kts | 345° |
| 2026-04-26 13:40 | 48.06294 | 16.60207 | 1091 ft | 125 kts | 346° |
| 2026-04-26 13:41 | 48.07123 | 16.59859 | 955 ft | 123 kts | 347° |
| 2026-04-26 13:41 | 48.07958 | 16.59505 | 826 ft | 123 kts | 347° |
| 2026-04-26 13:41 | 48.08784 | 16.59163 | 662 ft | 123 kts | 347° |
| 2026-04-26 13:41 | 48.09527 | 16.58856 | 614 ft | 89 kts | 343° |
| 2026-04-26 13:42 | 48.09949 | 16.58678 | 619 ft | 61 kts | 344° |
| 2026-04-26 13:42 | 48.10290 | 16.58533 | 609 ft | 35 kts | 341° |
| 2026-04-26 13:42 | 48.10433 | 16.58338 | 621 ft | 19 kts | 297° |
| 2026-04-26 13:42 | 48.10502 | 16.58173 | 614 ft | 17 kts | 324° |
| 2026-04-26 13:43 | 48.10604 | 16.58121 | 619 ft | 15 kts | 345° |
| 2026-04-26 13:43 | 48.10723 | 16.58076 | 620 ft | 20 kts | 347° |
| 2026-04-26 13:43 | 48.10854 | 16.58014 | 609 ft | 17 kts | 343° |
| 2026-04-26 13:43 | 48.10984 | 16.57961 | 619 ft | 21 kts | 343° |
| 2026-04-26 13:44 | 48.11100 | 16.57892 | 613 ft | 16 kts | 306° |
| 2026-04-26 13:44 | 48.11148 | 16.57748 | 615 ft | 18 kts | 297° |
| 2026-04-26 13:44 | 48.11213 | 16.57553 | 609 ft | 23 kts | 292° |
| 2026-04-26 13:44 | 48.11284 | 16.57328 | 613 ft | 22 kts | 296° |
| 2026-04-26 13:45 | 48.11357 | 16.57103 | 609 ft | 26 kts | 296° |
| 2026-04-26 13:45 | 48.11440 | 16.56848 | 613 ft | 29 kts | 296° |
| 2026-04-26 13:45 | 48.11519 | 16.56606 | 615 ft | 25 kts | 296° |
| 2026-04-26 13:45 | 48.11601 | 16.56355 | 609 ft | 26 kts | 296° |
| 2026-04-26 13:46 | 48.11672 | 16.56138 | 612 ft | 25 kts | 296° |
| 2026-04-26 13:46 | 48.11753 | 16.55890 | 619 ft | 25 kts | 296° |
| 2026-04-26 13:46 | 48.11814 | 16.55699 | 613 ft | 14 kts | 296° |
| 2026-04-26 13:46 | 48.11859 | 16.55667 | 609 ft | 9 kts | 31° |
| 2026-04-26 13:47 | 48.11896 | 16.55695 | 609 ft | 1 kts | 26° |
| 2026-04-26 13:47 | 48.11901 | 16.55699 | 609 ft | 0 kts | 25° |